This is the latest recevied weather packets stored in our database for station/object KF0TNT. If no packets are shown the sender has not sent any weather packets the latest 10 day(s).
| Time | Temp. | Humidity | Pressure | Rain* | Wind** | Luminosity | Snow |
|---|---|---|---|---|---|---|---|
| 1777815196 | 9.44° C | 38% | 1021.6 hPa | 0 mm | - | 95 W/m² | - |
| 1777814892 | 8.89° C | 38% | 1022.1 hPa | 0 mm | - | 86 W/m² | - |
| 1777814588 | 8.89° C | 38% | 1021.7 hPa | 0 mm | - | 78 W/m² | - |
| 1777814286 | 8.33° C | 39% | 1022 hPa | 0 mm | - | 72 W/m² | - |
| 1777813982 | 8.33° C | 39% | 1021.8 hPa | 0 mm | - | 66 W/m² | - |
| 1777813680 | 8.33° C | 40% | 1021.5 hPa | 0 mm | - | 61 W/m² | - |
| 1777813377 | 8.33° C | 39% | 1021.6 hPa | 0 mm | - | 56 W/m² | - |
| 1777813074 | 7.78° C | 39% | 1021.5 hPa | 0 mm | - | 51 W/m² | - |
| 1777812772 | 7.78° C | 39% | 1021.3 hPa | 0 mm | - | 46 W/m² | - |
| 1777812468 | 7.22° C | 40% | 1021.2 hPa | 0 mm | - | 41 W/m² | - |
| 1777812166 | 7.22° C | 41% | 1021.3 hPa | 0 mm | - | 37 W/m² | - |
| 1777811864 | 6.67° C | 42% | 1021.1 hPa | 0 mm | - | 34 W/m² | - |
| 1777811563 | 6.11° C | 42% | 1021 hPa | 0 mm | - | 30 W/m² | - |
| 1777811258 | 5.56° C | 45% | 1021.1 hPa | 0 mm | - | 25 W/m² | - |
| 1777810955 | 5.56° C | 44% | 1021.3 hPa | 0 mm | - | 21 W/m² | - |
| 1777810651 | 5.56° C | 45% | 1021.2 hPa | 0 mm | - | 16 W/m² | - |
| 1777810349 | 5.56° C | 45% | 1021.1 hPa | 0 mm | - | 12 W/m² | - |
| 1777810044 | 5° C | 48% | 1021 hPa | 0 mm | - | 7 W/m² | - |
| 1777809743 | 5° C | 46% | 1020.7 hPa | 0 mm | - | 5 W/m² | - |
| 1777809440 | 5° C | 47% | 1020.9 hPa | 0 mm | - | 3 W/m² | - |
| 1777809138 | 5° C | 46% | 1020.9 hPa | 0 mm | - | 2 W/m² | - |
| 1777808835 | 5.56° C | 44% | 1021 hPa | 0 mm | - | 1 W/m² | - |
| 1777808531 | 5.56° C | 45% | 1020.7 hPa | 0 mm | - | 0 W/m² | - |
| 1777808229 | 6.11° C | 43% | 1020.9 hPa | 0 mm | - | 0 W/m² | - |
| 1777807928 | 6.11° C | 43% | 1020.9 hPa | 0 mm | - | 0 W/m² | - |
* Rain latest hour (hover to see other rain measurements)
** Current wind speed in m/s (hover to see current wind gust speed)